Details for Delta Airlines at KATL




Go Back


Latest METAR
Local Time

KATL 221052Z 00000KT 10SM FEW050 22/19 A3013 RMK AO2 SLP193 T02220194
22/09/2018, 07:06:46

Description
Results
Delta Airlines Logo
Number of Pilots based at KATL
0 Pilots Based here
Number of Delta Airlines Flights Departed from KATL
10 Flights Departed
Number of Delta Airlines Flights Arrived at KATL
11 Flights Arrived
Number of Delta Airlines Schedules Departing from KATL
1749 Schedules
Number of Delta Airlines Schedules Arriving at KATL
1837 Schedules
Number of Delta Airlines Schedules Departing from KATL availible today
894 Schedules Today
Number of Delta Airlines Schedules Arriving at KATL availible today
859 Schedules Today
Average Landing Rate at KATL
-154 fpm
Delta Airlines Average Landing Rate at KATL
-127 fpm
Total Fuel Purchased at KATL by Delta Airlines
45,431.36 kgs / 100,157.98 lbs

Pilots Based at KATL


Pilot ID
Pilot Name
Pilot Rank
No. of Flights
No. of Flying Hours
There are no pilots assigned to this hub!   Will you be the first?
Content